createdAt,value
2023-03-22T00:01:28.621Z,23.53
2023-03-22T00:03:56.402Z,23.33
2023-03-22T00:06:24.499Z,22.13
2023-03-22T00:08:53.257Z,22.07
2023-03-22T00:11:24.175Z,22.27
2023-03-22T00:13:52.750Z,22.40
2023-03-22T00:16:20.717Z,20.50
2023-03-22T00:18:48.361Z,19.93
2023-03-22T00:21:16.976Z,22.20
2023-03-22T00:23:44.828Z,24.13
2023-03-22T00:26:14.088Z,22.57
2023-03-22T00:28:43.232Z,23.10
2023-03-22T00:31:11.845Z,19.70
2023-03-22T00:33:39.470Z,23.43
2023-03-22T00:36:08.863Z,23.47
2023-03-22T00:38:42.857Z,22.23
2023-03-22T00:41:13.206Z,22.67
2023-03-22T00:43:40.640Z,22.67
2023-03-22T00:46:10.774Z,21.43
2023-03-22T00:48:38.611Z,21.90
2023-03-22T00:51:06.892Z,21.20
2023-03-22T00:53:36.382Z,23.03
2023-03-22T00:56:04.544Z,22.70
2023-03-22T00:58:32.488Z,21.03
2023-03-22T01:01:00.105Z,22.20
2023-03-22T01:03:29.153Z,22.13
2023-03-22T01:05:56.785Z,22.10
2023-03-22T01:08:24.750Z,21.40
2023-03-22T01:10:52.528Z,21.30
2023-03-22T01:13:20.108Z,21.83
2023-03-22T01:15:51.230Z,20.90
2023-03-22T01:18:18.986Z,22.33
2023-03-22T01:20:47.807Z,21.57
2023-03-22T01:23:15.263Z,22.90
2023-03-22T01:25:42.824Z,20.43
2023-03-22T01:28:10.389Z,22.40
2023-03-22T01:30:40.012Z,21.33
2023-03-22T01:33:08.607Z,22.57
2023-03-22T01:35:36.663Z,23.40
2023-03-22T01:38:05.878Z,23.43
2023-03-22T01:40:34.067Z,21.17
2023-03-22T01:43:01.515Z,23.67
2023-03-22T01:45:36.951Z,24.20
2023-03-22T01:48:09.318Z,23.03
2023-03-22T01:50:38.967Z,23.77
2023-03-22T01:53:09.615Z,23.33
2023-03-22T01:55:38.491Z,21.10
2023-03-22T01:58:06.475Z,24.57
2023-03-22T02:00:34.699Z,22.50
2023-03-22T02:03:02.251Z,23.33
2023-03-22T02:05:30.949Z,22.93
2023-03-22T02:07:58.510Z,22.50
2023-03-22T02:10:28.611Z,23.17
2023-03-22T02:13:12.014Z,25.17
2023-03-22T02:15:46.923Z,20.27
2023-03-22T02:18:28.477Z,20.47
2023-03-22T02:21:22.240Z,20.80
2023-03-22T02:24:28.012Z,22.07
2023-03-22T02:27:34.998Z,20.90
2023-03-22T02:30:25.063Z,22.33
2023-03-22T02:33:13.736Z,21.70
2023-03-22T02:35:51.609Z,23.30
2023-03-22T02:39:00.113Z,22.90
2023-03-22T02:41:39.400Z,22.33
2023-03-22T02:44:13.090Z,22.33
2023-03-22T02:46:46.552Z,21.40
2023-03-22T02:49:21.298Z,21.30
2023-03-22T02:51:53.628Z,20.50
2023-03-22T02:54:28.704Z,19.50
2023-03-22T02:57:02.900Z,23.40
2023-03-22T02:59:34.348Z,21.20
2023-03-22T03:02:06.107Z,20.33
2023-03-22T03:04:39.410Z,20.90
2023-03-22T03:07:10.540Z,19.63
2023-03-22T03:09:42.112Z,21.27
2023-03-22T03:12:14.302Z,21.73
2023-03-22T03:14:42.128Z,18.57
2023-03-22T03:17:21.315Z,20.43
2023-03-22T03:19:59.161Z,42.80
2023-03-22T03:22:36.682Z,31.13
2023-03-22T03:25:15.086Z,20.43
2023-03-22T03:27:49.814Z,20.80
2023-03-22T03:30:27.115Z,20.27
2023-03-22T03:32:59.192Z,19.37
2023-03-22T03:35:29.201Z,19.90
2023-03-22T03:38:01.501Z,20.60
2023-03-22T03:40:33.441Z,20.00
2023-03-22T03:43:04.328Z,19.57
2023-03-22T03:45:31.922Z,18.87
2023-03-22T03:48:02.083Z,17.57
2023-03-22T03:50:30.083Z,21.10
2023-03-22T03:52:57.978Z,21.80
2023-03-22T03:55:27.217Z,16.50
2023-03-22T03:57:56.105Z,20.17
2023-03-22T04:00:24.224Z,16.93
2023-03-22T04:02:51.680Z,18.33
2023-03-22T04:05:19.315Z,17.30
2023-03-22T04:07:46.807Z,19.63
2023-03-22T04:10:14.288Z,21.13
2023-03-22T04:12:41.736Z,20.67
2023-03-22T04:15:12.134Z,17.80
2023-03-22T04:17:39.784Z,19.47
2023-03-22T04:20:10.785Z,18.57
2023-03-22T04:22:39.304Z,20.03
2023-03-22T04:25:11.676Z,19.07
2023-03-22T04:27:40.659Z,18.03
2023-03-22T04:30:12.402Z,18.67
2023-03-22T04:32:40.448Z,20.17
2023-03-22T04:35:08.315Z,19.93
2023-03-22T04:37:36.499Z,19.83
2023-03-22T04:40:07.270Z,20.13
2023-03-22T04:42:35.499Z,18.20
2023-03-22T04:45:03.850Z,19.30
2023-03-22T04:47:32.655Z,18.87
2023-03-22T04:50:00.134Z,19.20
2023-03-22T04:52:27.569Z,19.93
2023-03-22T04:54:54.975Z,19.30
2023-03-22T04:57:22.649Z,19.50
2023-03-22T04:59:50.189Z,18.67
2023-03-22T05:02:17.733Z,20.20
2023-03-22T05:04:46.738Z,21.30
2023-03-22T05:07:14.268Z,18.83
2023-03-22T05:09:41.830Z,19.97
2023-03-22T05:12:09.292Z,21.43
2023-03-22T05:14:36.865Z,22.97
2023-03-22T05:17:04.343Z,18.47
2023-03-22T05:19:33.166Z,18.87
2023-03-22T05:22:02.024Z,20.13
2023-03-22T05:24:30.048Z,18.87
2023-03-22T05:27:01.017Z,18.27
2023-03-22T05:29:29.202Z,18.67
2023-03-22T05:31:56.672Z,19.90
2023-03-22T05:34:24.148Z,18.70
2023-03-22T05:36:51.749Z,20.03
2023-03-22T05:39:20.864Z,18.47
2023-03-22T05:41:48.396Z,17.87
2023-03-22T05:44:15.904Z,19.93
2023-03-22T05:46:43.360Z,19.20
2023-03-22T05:49:12.198Z,17.63
2023-03-22T05:51:42.096Z,18.87
2023-03-22T05:54:09.780Z,19.10
2023-03-22T05:56:40.676Z,18.23
2023-03-22T05:59:08.255Z,17.60
2023-03-22T06:01:35.803Z,17.70
2023-03-22T06:04:03.294Z,19.20
2023-03-22T06:06:30.783Z,20.63
2023-03-22T06:09:14.163Z,18.07
2023-03-22T06:11:44.752Z,18.83
2023-03-22T06:14:12.207Z,19.33
2023-03-22T06:16:39.706Z,18.50
2023-03-22T06:19:07.170Z,16.77
2023-03-22T06:21:34.660Z,18.87
2023-03-22T06:24:02.104Z,16.83
2023-03-22T06:26:29.580Z,17.47
2023-03-22T06:28:58.352Z,19.37
2023-03-22T06:31:26.054Z,18.10
2023-03-22T06:33:55.806Z,17.90
2023-03-22T06:36:23.482Z,17.23
2023-03-22T06:38:51.008Z,18.33
2023-03-22T06:41:18.464Z,19.17
2023-03-22T06:43:46.162Z,18.83
2023-03-22T06:46:15.331Z,18.07
2023-03-22T06:48:42.964Z,18.03
2023-03-22T06:51:10.464Z,17.10
2023-03-22T06:53:38.275Z,17.67
2023-03-22T06:56:06.665Z,17.03
2023-03-22T06:58:34.151Z,17.77
2023-03-22T07:01:01.621Z,17.57
2023-03-22T07:03:30.448Z,18.33
2023-03-22T07:06:02.509Z,18.03
2023-03-22T07:08:30.069Z,17.93
2023-03-22T07:10:57.607Z,18.03
2023-03-22T07:13:25.072Z,17.30
2023-03-22T07:15:56.606Z,18.03
2023-03-22T07:18:24.456Z,17.20
2023-03-22T07:20:53.291Z,17.27
2023-03-22T07:23:20.834Z,17.40
2023-03-22T07:25:49.436Z,17.30
2023-03-22T07:28:17.212Z,16.73
2023-03-22T07:30:44.748Z,17.03
2023-03-22T07:33:12.297Z,17.37
2023-03-22T07:35:39.783Z,17.77
2023-03-22T07:38:08.541Z,16.83
2023-03-22T07:40:37.433Z,16.50
2023-03-22T07:43:05.517Z,17.30
2023-03-22T07:45:33.144Z,15.97
2023-03-22T07:48:00.998Z,17.17
2023-03-22T07:50:28.598Z,16.87
2023-03-22T07:52:56.056Z,16.93
2023-03-22T07:55:25.097Z,17.07
2023-03-22T07:57:53.716Z,16.00
2023-03-22T08:00:21.831Z,15.43
2023-03-22T08:02:49.718Z,17.33
2023-03-22T08:05:17.311Z,15.73
2023-03-22T08:07:44.953Z,15.90
2023-03-22T08:10:12.816Z,17.60
2023-03-22T08:12:41.588Z,17.63
2023-03-22T08:15:11.113Z,16.20
2023-03-22T08:17:38.630Z,16.27
2023-03-22T08:20:08.905Z,13.80
2023-03-22T08:22:36.546Z,14.43
2023-03-22T08:25:04.694Z,15.77
2023-03-22T08:27:32.442Z,15.13
2023-03-22T08:30:02.508Z,13.43
2023-03-22T08:32:30.027Z,14.80
2023-03-22T08:34:57.475Z,15.23
2023-03-22T08:37:25.243Z,14.30
2023-03-22T08:39:52.874Z,15.80
2023-03-22T08:42:20.321Z,16.37
2023-03-22T08:44:47.919Z,14.80
2023-03-22T08:47:16.846Z,15.20
2023-03-22T08:49:44.319Z,14.37
2023-03-22T08:52:11.915Z,15.67
2023-03-22T08:54:39.575Z,14.40
2023-03-22T08:57:09.439Z,14.50
2023-03-22T08:59:37.063Z,14.60
2023-03-22T09:02:04.773Z,14.43
2023-03-22T09:04:33.690Z,14.30
2023-03-22T09:07:01.355Z,13.17
2023-03-22T09:09:28.815Z,14.37
2023-03-22T09:11:56.280Z,14.50
2023-03-22T09:14:23.781Z,12.80
2023-03-22T09:16:51.868Z,13.47
2023-03-22T09:19:19.430Z,12.80
2023-03-22T09:21:48.455Z,14.50
2023-03-22T09:24:15.955Z,12.87
2023-03-22T09:26:43.409Z,12.83
2023-03-22T09:29:11.018Z,13.43
2023-03-22T09:31:38.526Z,11.40
2023-03-22T09:34:06.829Z,13.90
2023-03-22T09:36:34.395Z,12.23
2023-03-22T09:39:06.620Z,12.63
2023-03-22T09:41:39.175Z,12.03
2023-03-22T09:44:10.351Z,11.67
2023-03-22T09:46:42.610Z,11.40
2023-03-22T09:49:15.537Z,11.17
2023-03-22T09:51:45.542Z,13.37
2023-03-22T09:54:18.575Z,11.57
2023-03-22T09:56:50.793Z,11.13
2023-03-22T09:59:27.229Z,12.10
2023-03-22T10:01:59.964Z,12.03
2023-03-22T10:04:42.032Z,11.53
2023-03-22T10:07:22.492Z,11.73
2023-03-22T10:10:02.046Z,11.73
2023-03-22T10:12:32.210Z,11.57
2023-03-22T10:15:06.918Z,12.63
2023-03-22T10:17:37.135Z,11.23
2023-03-22T10:20:09.536Z,10.50
2023-03-22T10:22:41.557Z,11.90
2023-03-22T10:25:11.158Z,11.47
2023-03-22T10:27:38.689Z,10.10
2023-03-22T10:30:11.279Z,10.27
2023-03-22T10:32:57.156Z,8.77
2023-03-22T10:35:25.874Z,9.63
2023-03-22T10:37:55.575Z,9.00
2023-03-22T10:40:28.050Z,8.97
2023-03-22T10:42:57.882Z,10.00
2023-03-22T10:45:27.201Z,9.47
2023-03-22T10:48:00.945Z,11.10
2023-03-22T10:50:33.298Z,9.30
2023-03-22T10:53:05.198Z,9.50
2023-03-22T10:55:34.050Z,8.87
2023-03-22T10:58:15.575Z,9.93
2023-03-22T11:00:47.339Z,9.80
2023-03-22T11:03:27.862Z,7.27
2023-03-22T11:06:06.314Z,7.73
2023-03-22T11:08:40.568Z,6.80
2023-03-22T11:11:17.970Z,9.80
2023-03-22T11:13:52.093Z,10.10
2023-03-22T11:16:20.243Z,6.40
2023-03-22T11:18:48.137Z,7.50
2023-03-22T11:21:18.320Z,6.93
2023-03-22T11:23:54.006Z,7.40
2023-03-22T11:26:30.928Z,6.77
2023-03-22T11:29:05.618Z,8.10
2023-03-22T11:31:58.277Z,6.63
2023-03-22T11:34:28.534Z,8.87
2023-03-22T11:36:57.598Z,7.40
2023-03-22T11:39:28.279Z,8.63
2023-03-22T11:42:01.571Z,9.03
2023-03-22T11:44:33.015Z,6.90
2023-03-22T11:47:03.072Z,6.67
2023-03-22T11:49:40.614Z,6.67
2023-03-22T11:52:11.412Z,4.93
2023-03-22T11:54:42.421Z,4.90
2023-03-22T11:57:16.950Z,6.13
2023-03-22T11:59:49.740Z,5.07
2023-03-22T12:02:23.815Z,4.80
2023-03-22T12:04:57.350Z,5.03
2023-03-22T12:07:27.726Z,6.97
2023-03-22T12:10:03.309Z,6.37
2023-03-22T12:12:37.741Z,5.03
2023-03-22T12:15:09.320Z,5.83
2023-03-22T12:17:42.736Z,6.60
2023-03-22T12:20:20.702Z,6.00
2023-03-22T12:22:52.693Z,7.77
2023-03-22T12:25:23.712Z,6.93
2023-03-22T12:27:55.825Z,5.43
2023-03-22T12:30:26.295Z,7.50
2023-03-22T12:32:59.810Z,4.80
2023-03-22T12:35:31.361Z,5.17
2023-03-22T12:38:02.502Z,7.27
2023-03-22T12:40:34.370Z,5.90
2023-03-22T12:43:11.493Z,4.60
2023-03-22T12:45:43.494Z,5.57
2023-03-22T12:48:19.366Z,7.73
2023-03-22T12:50:51.461Z,5.47
2023-03-22T12:53:21.267Z,4.40
2023-03-22T12:55:50.327Z,4.57
2023-03-22T12:58:22.391Z,6.87
2023-03-22T13:00:55.299Z,7.63
2023-03-22T13:03:28.812Z,7.03
2023-03-22T13:06:02.670Z,6.13
2023-03-22T13:09:03.948Z,5.93
2023-03-22T13:11:31.499Z,3.90
2023-03-22T13:14:00.391Z,4.13
2023-03-22T13:16:49.709Z,5.67
2023-03-22T13:19:33.902Z,7.40
2023-03-22T13:22:29.300Z,5.77
2023-03-22T13:25:28.951Z,4.83
2023-03-22T13:27:58.824Z,5.60
2023-03-22T13:30:33.010Z,3.73
2023-03-22T13:33:04.439Z,4.17
2023-03-22T13:35:44.407Z,7.50
2023-03-22T13:38:21.046Z,4.43
2023-03-22T13:40:54.741Z,3.73
2023-03-22T13:43:34.227Z,4.97
2023-03-22T13:46:43.171Z,6.23
2023-03-22T13:49:24.482Z,4.77
2023-03-22T13:51:52.508Z,2.87
2023-03-22T13:54:24.767Z,3.20
2023-03-22T13:56:56.911Z,5.53
2023-03-22T13:59:30.104Z,4.13
2023-03-22T14:02:05.077Z,3.20
2023-03-22T14:04:39.384Z,4.97
2023-03-22T14:07:20.503Z,2.83
2023-03-22T14:09:51.584Z,4.57
2023-03-22T14:12:23.578Z,6.33
2023-03-22T14:14:55.912Z,3.87
2023-03-22T14:17:34.158Z,4.80
2023-03-22T14:20:04.912Z,5.70
